Pittsburgh, Pennsylvania
Traffic Map
Current Weather Conditions
Pittsburgh, Pennsylvania
Overcast
Overcast
12°
Feels Like: 12°
Wind Chill: 12° Ceiling: 4400
Heat Index: 12° Visibility: 10mi
Dew Point: Wind: 0mph
Humidity: 83% Direction: ° ()
Pressure: 29.96in Gusts: 0mph
Raw Report DataKAGC 291053Z 00000KT 10SM OVC044 12/09 A2996 RMK AO2 SLP147 T01170089
Traffic Incident Summary
Active as of:
Severity:
Category:
InformationThere was an issue retrieving the traffic information for this location. Please try a different location or try again shortly.
Advertisements
Track Severe Weather on mobile